Time;durP1;ratioP1;P1;durP2;ratioP2;P2;SDS_P1;SDS_P2;PMS_P1;PMS_P2;Temp;Humidity;BMP_temperature;BMP_pressure;BME280_temperature;BME280_humidity;BME280_pressure;Samples;Min_cycle;Max_cycle;Signal;HPM_P1;HPM_P2
2022/04/11 00:00:43;;;;;;;1.38;1.17;;;;;;;10.42;100.00;99699.97;7394361;19;20022;-53
2022/04/11 00:03:10;;;;;;;0.98;0.98;;;;;;;10.39;100.00;99702.94;7393144;19;20011;-53
2022/04/11 00:05:36;;;;;;;1.42;1.13;;;;;;;10.30;100.00;99689.88;7392706;19;20467;-53
2022/04/11 00:08:02;;;;;;;0.52;0.52;;;;;;;10.19;100.00;99688.91;7394788;19;20788;-52
2022/04/11 00:10:29;;;;;;;2.70;1.02;;;;;;;10.00;100.00;99699.38;7391037;19;20041;-52
2022/04/11 00:13:03;;;;;;;2.45;1.25;;;;;;;9.86;100.00;99700.09;7393023;19;20022;-52
2022/04/11 00:15:29;;;;;;;1.20;0.70;;;;;;;9.75;100.00;99697.84;7395723;19;20345;-52
2022/04/11 00:17:55;;;;;;;1.35;1.25;;;;;;;9.66;100.00;99697.13;7401630;19;20025;-52
2022/04/11 00:20:21;;;;;;;0.45;0.43;;;;;;;9.55;100.00;99699.69;7393451;19;20015;-52
2022/04/11 00:22:47;;;;;;;0.38;0.38;;;;;;;9.43;100.00;99700.66;7392757;19;20011;-52
2022/04/11 00:25:14;;;;;;;4.25;1.02;;;;;;;9.32;100.00;99694.84;7392591;19;20042;-52
2022/04/11 00:27:41;;;;;;;0.80;0.63;;;;;;;9.20;100.00;99699.41;7396017;19;20007;-52
2022/04/11 00:30:09;;;;;;;0.80;0.80;;;;;;;9.00;100.00;99691.63;7393416;19;20401;-52
2022/04/11 00:32:44;;;;;;;2.22;1.45;;;;;;;8.96;100.00;99687.47;7391900;19;20019;-52
2022/04/11 00:35:10;;;;;;;0.82;0.68;;;;;;;8.89;100.00;99696.13;7392523;19;20443;-53
2022/04/11 00:37:39;;;;;;;0.90;0.88;;;;;;;8.80;100.00;99693.38;7394118;19;20019;-53
2022/04/11 00:40:09;;;;;;;1.23;0.63;;;;;;;8.73;100.00;99693.69;7392151;19;20034;-53
2022/04/11 00:42:37;;;;;;;0.45;0.45;;;;;;;8.62;100.00;99685.84;7391760;19;20021;-53
2022/04/11 00:45:04;;;;;;;1.42;0.60;;;;;;;8.55;100.00;99686.19;7391861;19;20014;-52
2022/04/11 00:47:30;;;;;;;0.95;0.95;;;;;;;8.48;100.00;99694.84;7392865;19;20010;-52
2022/04/11 00:50:03;;;;;;;0.73;0.73;;;;;;;8.44;100.00;99683.13;7392101;19;20011;-52
2022/04/11 00:52:32;;;;;;;0.50;0.50;;;;;;;8.43;100.00;99684.34;7391979;19;20458;-53
2022/04/11 00:54:58;;;;;;;1.77;1.10;;;;;;;8.43;100.00;99678.81;7391261;19;20035;-53
2022/04/11 00:57:26;;;;;;;1.98;0.95;;;;;;;8.40;100.00;99668.66;7391715;19;20021;-53
2022/04/11 00:59:53;;;;;;;2.67;0.82;;;;;;;8.34;100.00;99678.81;7391498;19;20364;-52
2022/04/11 01:02:19;;;;;;;0.52;0.52;;;;;;;8.28;100.00;99681.44;7392177;19;20019;-53
2022/04/11 01:04:45;;;;;;;1.05;1.05;;;;;;;8.19;100.00;99677.88;7389931;19;20021;-53
2022/04/11 01:07:12;;;;;;;1.35;1.30;;;;;;;8.11;100.00;99674.66;7392315;19;20444;-53
2022/04/11 01:09:40;;;;;;;0.47;0.47;;;;;;;8.07;100.00;99676.03;7393790;19;20432;-53
2022/04/11 01:12:07;;;;;;;1.13;1.13;;;;;;;8.03;100.00;99680.97;7389708;19;20031;-53
2022/04/11 01:14:33;;;;;;;0.70;0.63;;;;;;;7.99;100.00;99677.59;7389559;19;20513;-53
2022/04/11 01:16:59;;;;;;;0.55;0.55;;;;;;;7.94;100.00;99672.66;7392962;19;20471;-53
2022/04/11 01:19:26;;;;;;;2.30;1.45;;;;;;;7.88;100.00;99666.97;7390103;19;20507;-52
2022/04/11 01:21:54;;;;;;;0.93;0.93;;;;;;;7.84;100.00;99673.91;7390299;19;20007;-52
2022/04/11 01:24:22;;;;;;;0.88;0.88;;;;;;;7.78;100.00;99664.63;7386537;19;20026;-52
2022/04/11 01:26:50;;;;;;;0.68;0.68;;;;;;;7.72;100.00;99660.94;7388891;19;20052;-52
2022/04/11 01:29:18;;;;;;;0.80;0.50;;;;;;;7.67;100.00;99658.78;7389806;19;20007;-52
2022/04/11 01:31:45;;;;;;;0.40;0.40;;;;;;;7.72;100.00;99666.47;7388971;19;20104;-52
2022/04/11 01:34:12;;;;;;;13.73;0.95;;;;;;;7.76;100.00;99661.56;7389135;19;20372;-52
2022/04/11 01:36:39;;;;;;;0.55;0.55;;;;;;;7.81;100.00;99666.50;7389351;19;20010;-52
2022/04/11 01:39:08;;;;;;;3.58;1.52;;;;;;;7.87;100.00;99653.53;7388726;19;20010;-52
2022/04/11 01:41:35;;;;;;;0.75;0.75;;;;;;;7.98;100.00;99651.09;7388956;19;20092;-52
2022/04/11 01:44:01;;;;;;;0.70;0.70;;;;;;;8.08;100.00;99653.38;7387725;19;20475;-52
2022/04/11 01:46:27;;;;;;;1.27;1.00;;;;;;;8.17;100.00;99653.38;7390748;19;20041;-52
2022/04/11 01:48:57;;;;;;;0.60;0.60;;;;;;;8.27;100.00;99635.50;7391358;19;20031;-52
2022/04/11 01:51:23;;;;;;;0.47;0.47;;;;;;;8.38;100.00;99638.56;7389269;19;20389;-53
2022/04/11 01:53:50;;;;;;;0.50;0.50;;;;;;;8.48;100.00;99638.56;7388303;19;20010;-53
2022/04/11 01:56:16;;;;;;;2.08;0.60;;;;;;;8.51;100.00;99627.28;7388830;19;20014;-53
2022/04/11 01:58:42;;;;;;;0.57;0.57;;;;;;;8.54;100.00;99628.38;7392692;19;20020;-53
2022/04/11 02:01:08;;;;;;;0.45;0.40;;;;;;;8.51;100.00;99621.00;7387475;19;20010;-53
2022/04/11 02:03:35;;;;;;;1.65;0.80;;;;;;;8.49;100.00;99617.91;7387315;19;20014;-53
2022/04/11 02:06:01;;;;;;;0.52;0.52;;;;;;;8.45;100.00;99606.97;7388800;19;20078;-52
2022/04/11 02:08:27;;;;;;;1.05;0.47;;;;;;;8.44;100.00;99601.88;7390818;19;20014;-52
2022/04/11 02:10:59;;;;;;;0.55;0.55;;;;;;;8.52;100.00;99601.09;7386952;19;20014;-52
2022/04/11 02:13:25;;;;;;;0.95;0.80;;;;;;;8.66;100.00;99594.88;7389582;19;20370;-52
2022/04/11 02:15:52;;;;;;;1.05;1.05;;;;;;;8.72;100.00;99593.00;7388296;19;20019;-52
2022/04/11 02:18:19;;;;;;;1.85;0.60;;;;;;;8.74;100.00;99584.97;7392723;19;20010;-52
2022/04/11 02:20:46;;;;;;;4.60;1.13;;;;;;;8.76;100.00;99582.50;7387551;19;20015;-52
2022/04/11 02:23:12;;;;;;;0.30;0.30;;;;;;;8.68;100.00;99581.31;7387584;19;20031;-52
2022/04/11 02:25:40;;;;;;;0.22;0.22;;;;;;;8.63;100.00;99581.94;7386955;19;20447;-52
2022/04/11 02:28:06;;;;;;;0.73;0.73;;;;;;;8.64;100.00;99591.78;7390463;19;20010;-52
2022/04/11 02:30:32;;;;;;;1.08;0.63;;;;;;;8.66;100.00;99575.44;7387512;19;20360;-52
2022/04/11 02:32:59;;;;;;;3.88;0.60;;;;;;;8.58;100.00;99560.34;7387026;19;20011;-52
2022/04/11 02:35:25;;;;;;;0.75;0.75;;;;;;;8.51;100.00;99565.47;7388906;19;20010;-52
2022/04/11 02:37:52;;;;;;;2.92;0.60;;;;;;;8.46;100.00;99564.13;7389844;19;20014;-52
2022/04/11 02:40:19;;;;;;;0.45;0.45;;;;;;;8.38;100.00;99562.91;7391820;19;20014;-52
2022/04/11 02:43:05;;;;;;;3.30;0.52;;;;;;;8.35;100.00;99561.06;7394033;19;20015;-52
2022/04/11 02:45:33;;;;;;;0.85;0.85;;;;;;;8.26;100.00;99545.22;7395158;19;20049;-53
2022/04/11 02:48:00;;;;;;;0.70;0.70;;;;;;;8.14;100.00;99539.84;7397289;19;20018;-52
2022/04/11 02:50:26;;;;;;;1.25;0.50;;;;;;;8.04;100.00;99544.63;7394054;19;20448;-52
2022/04/11 02:53:05;;;;;;;0.80;0.80;;;;;;;7.97;100.00;99539.41;7394496;19;20017;-52
2022/04/11 02:55:31;;;;;;;0.63;0.63;;;;;;;7.89;100.00;99545.72;7393781;19;20486;-52
2022/04/11 02:57:58;;;;;;;1.00;0.50;;;;;;;7.81;100.00;99547.28;7396671;19;20045;-52
2022/04/11 03:00:24;;;;;;;1.20;0.95;;;;;;;7.81;100.00;99542.53;7394903;19;20010;-52
2022/04/11 03:02:55;;;;;;;;;;;;;;;7.71;100.00;99548.53;7394930;19;20011;-52
2022/04/11 03:05:24;;;;;;;0.57;0.57;;;;;;;7.73;100.00;99557.16;7396668;19;20326;-52
2022/04/11 03:07:51;;;;;;;0.63;0.63;;;;;;;7.70;100.00;99558.06;7402657;19;20080;-52
2022/04/11 03:10:19;;;;;;;0.43;0.43;;;;;;;7.76;100.00;99556.22;7395878;19;20014;-52
2022/04/11 03:12:47;;;;;;;0.63;0.47;;;;;;;7.83;100.00;99556.69;7394891;19;20039;-52
2022/04/11 03:15:14;;;;;;;0.60;0.60;;;;;;;7.91;100.00;99551.59;7394332;19;20050;-52
2022/04/11 03:17:42;;;;;;;0.85;0.85;;;;;;;8.01;100.00;99544.81;7396447;19;20021;-53
2022/04/11 03:20:10;;;;;;;4.40;0.85;;;;;;;8.10;100.00;99542.00;7393149;19;20010;-52
2022/04/11 03:22:39;;;;;;;1.05;0.60;;;;;;;8.23;100.00;99548.09;7393729;19;20010;-52
2022/04/11 03:25:08;;;;;;;0.17;0.17;;;;;;;8.35;100.00;99541.66;7395440;19;20014;-52
2022/04/11 03:27:36;;;;;;;1.05;1.00;;;;;;;8.48;100.00;99549.75;7395890;19;20455;-52
2022/04/11 03:30:03;;;;;;;0.50;0.50;;;;;;;8.54;100.00;99553.44;7397492;19;20014;-52
2022/04/11 03:32:31;;;;;;;0.80;0.80;;;;;;;8.67;100.00;99546.44;7393335;19;20006;-53
2022/04/11 03:34:57;;;;;;;0.47;0.47;;;;;;;8.81;100.00;99545.75;7393395;19;20006;-52
2022/04/11 03:37:25;;;;;;;0.38;0.38;;;;;;;8.82;100.00;99547.28;7394826;19;20018;-52
2022/04/11 03:39:59;;;;;;;1.00;0.63;;;;;;;8.78;100.00;99538.38;7392650;19;20015;-52
2022/04/11 03:42:27;;;;;;;0.77;0.73;;;;;;;8.78;100.00;99534.81;7392700;19;20542;-52
2022/04/11 03:44:53;;;;;;;1.27;0.90;;;;;;;8.79;100.00;99530.81;7389730;19;20049;-52
2022/04/11 03:47:21;;;;;;;0.75;0.55;;;;;;;8.77;100.00;99524.97;7394621;19;20460;-52
2022/04/11 03:49:47;;;;;;;11.05;1.30;;;;;;;8.68;100.00;99519.47;7393085;19;20017;-52
2022/04/11 03:52:21;;;;;;;0.63;0.45;;;;;;;8.61;100.00;99520.56;7392648;19;20025;-52
2022/04/11 03:54:47;;;;;;;1.08;1.08;;;;;;;8.65;100.00;99518.38;7391750;19;20029;-52
2022/04/11 03:57:16;;;;;;;1.45;0.68;;;;;;;8.70;100.00;99506.66;7393075;19;20014;-52
2022/04/11 03:59:42;;;;;;;3.65;0.88;;;;;;;8.68;100.00;99505.56;7397419;19;20432;-52
2022/04/11 04:02:10;;;;;;;0.70;0.70;;;;;;;8.74;100.00;99503.69;7392559;19;20136;-52
2022/04/11 04:04:37;;;;;;;0.63;0.63;;;;;;;8.92;100.00;99506.38;7389366;19;20468;-52
2022/04/11 04:07:03;;;;;;;0.77;0.77;;;;;;;8.99;100.00;99497.66;7392533;19;20010;-52
2022/04/11 04:09:30;;;;;;;0.98;0.77;;;;;;;8.96;100.00;99493.84;7391644;19;20025;-52
2022/04/11 04:11:56;;;;;;;1.25;0.80;;;;;;;8.90;100.00;99487.38;7391018;19;20015;-52
2022/04/11 04:14:32;;;;;;;6.07;0.65;;;;;;;8.92;100.00;99490.44;7390916;19;20015;-52
2022/04/11 04:16:58;;;;;;;1.40;0.95;;;;;;;8.85;100.00;99493.59;7394284;19;20066;-52
2022/04/11 04:19:38;;;;;;;4.20;1.40;;;;;;;8.77;100.00;99489.63;7391623;19;20006;-52
2022/04/11 04:22:10;;;;;;;0.43;0.43;;;;;;;8.72;100.00;99481.97;7391704;19;20435;-52
2022/04/11 04:24:37;;;;;;;0.73;0.73;;;;;;;8.57;100.00;99475.56;7389991;19;20325;-52
2022/04/11 04:27:05;;;;;;;0.90;0.90;;;;;;;8.52;100.00;99475.44;7392724;19;20010;-52
2022/04/11 04:29:35;;;;;;;2.13;1.20;;;;;;;8.54;100.00;99476.50;7394995;19;20078;-52
2022/04/11 04:32:02;;;;;;;1.83;0.52;;;;;;;8.57;100.00;99483.91;7390545;19;20375;-52
2022/04/11 04:34:30;;;;;;;3.20;0.90;;;;;;;8.55;100.00;99489.16;7391601;19;20570;-52
2022/04/11 04:36:58;;;;;;;0.75;0.75;;;;;;;8.59;100.00;99486.97;7391201;19;20482;-51
2022/04/11 04:39:25;;;;;;;1.55;0.98;;;;;;;8.61;100.00;99487.25;7390395;19;20352;-52
2022/04/11 04:41:52;;;;;;;1.13;0.82;;;;;;;8.63;100.00;99493.09;7390783;19;20015;-52
2022/04/11 04:44:20;;;;;;;1.85;0.73;;;;;;;8.61;100.00;99494.81;7388622;19;20037;-52
2022/04/11 04:46:52;;;;;;;0.80;0.80;;;;;;;8.59;100.00;99489.75;7389889;19;20049;-52
2022/04/11 04:49:25;;;;;;;1.50;0.95;;;;;;;8.56;100.00;99496.22;7391121;19;20023;-52
2022/04/11 04:51:55;;;;;;;0.60;0.60;;;;;;;8.43;100.00;99492.91;7389193;19;20018;-52
2022/04/11 04:54:21;;;;;;;1.70;0.85;;;;;;;8.38;100.00;99488.00;7390818;19;20010;-52
2022/04/11 04:56:49;;;;;;;1.00;0.70;;;;;;;8.43;100.00;99483.78;7391589;19;20015;-52
2022/04/11 04:59:22;;;;;;;1.33;0.63;;;;;;;8.33;100.00;99477.53;7393701;19;20344;-52
2022/04/11 05:01:49;;;;;;;0.85;0.63;;;;;;;8.28;100.00;99469.84;7389855;19;20010;-52
2022/04/11 05:04:16;;;;;;;0.60;0.60;;;;;;;8.25;100.00;99466.00;7386205;19;20032;-52
2022/04/11 05:06:42;;;;;;;2.65;1.75;;;;;;;8.23;100.00;99456.56;7391033;19;20018;-52
2022/04/11 05:09:11;;;;;;;2.28;1.15;;;;;;;8.38;100.00;99451.94;7389335;19;20021;-52
2022/04/11 05:11:38;;;;;;;1.10;0.88;;;;;;;8.49;100.00;99435.50;7390344;19;20035;-52
2022/04/11 05:14:05;;;;;;;1.77;0.80;;;;;;;8.54;100.00;99420.22;7389762;19;20066;-52
2022/04/11 05:16:34;;;;;;;2.80;1.02;;;;;;;8.55;100.00;99417.00;7390531;19;20011;-52
2022/04/11 05:19:02;;;;;;;0.60;0.60;;;;;;;8.60;100.00;99421.88;7389202;19;20350;-52
2022/04/11 05:21:29;;;;;;;0.88;0.88;;;;;;;8.70;100.00;99417.81;7389156;19;20514;-52
2022/04/11 05:23:55;;;;;;;0.85;0.85;;;;;;;8.76;100.00;99421.47;7388344;19;20018;-52
2022/04/11 05:26:22;;;;;;;1.23;1.13;;;;;;;8.68;100.00;99413.97;7390428;19;20019;-52
2022/04/11 05:28:49;;;;;;;0.63;0.63;;;;;;;8.59;100.00;99423.13;7392116;19;20401;-52
2022/04/11 05:31:17;;;;;;;2.83;1.27;;;;;;;8.68;100.00;99423.06;7388262;19;20407;-52
2022/04/11 05:33:44;;;;;;;4.43;1.15;;;;;;;8.74;100.00;99418.41;7390027;19;20025;-52
2022/04/11 05:36:14;;;;;;;;;;;;;;;8.81;100.00;99420.06;7390397;19;20006;-52
2022/04/11 05:38:41;;;;;;;1.95;1.42;;;;;;;8.90;100.00;99420.72;7392921;19;19910;-52
2022/04/11 05:41:08;;;;;;;0.90;0.90;;;;;;;9.00;100.00;99413.09;7389598;19;20347;-52
2022/04/11 05:43:48;;;;;;;0.80;0.80;;;;;;;9.02;100.00;99416.94;7387467;19;20014;-52
2022/04/11 05:46:17;;;;;;;0.70;0.70;;;;;;;9.03;100.00;99417.72;7387859;19;20089;-52
2022/04/11 05:48:50;;;;;;;0.50;0.50;;;;;;;9.13;100.00;99411.59;7393999;19;20099;-52
2022/04/11 05:51:16;;;;;;;2.50;1.50;;;;;;;9.15;100.00;99403.56;7388732;19;20011;-52
2022/04/11 05:53:42;;;;;;;1.25;0.95;;;;;;;9.18;100.00;99401.06;7388774;19;20007;-52
2022/04/11 05:56:09;;;;;;;3.85;1.60;;;;;;;9.10;100.00;99390.34;7388825;19;20040;-52
2022/04/11 05:58:35;;;;;;;3.70;1.08;;;;;;;9.09;100.00;99394.38;7391495;19;20353;-52
2022/04/11 06:01:03;;;;;;;3.25;2.53;;;;;;;9.14;100.00;99390.91;7388922;19;20021;-52
2022/04/11 06:03:29;;;;;;;7.68;1.27;;;;;;;9.21;100.00;99384.22;7390494;19;20014;-52
2022/04/11 06:05:55;;;;;;;13.05;1.67;;;;;;;9.28;100.00;99394.19;7391265;19;20014;-53
2022/04/11 06:08:22;;;;;;;0.70;0.70;;;;;;;9.36;100.00;99384.97;7391262;19;20015;-53
2022/04/11 06:10:48;;;;;;;2.40;0.80;;;;;;;9.41;100.00;99381.53;7392547;19;20798;-52
2022/04/11 06:13:19;;;;;;;1.13;1.02;;;;;;;9.49;100.00;99379.13;7387434;19;20011;-52
2022/04/11 06:15:47;;;;;;;4.43;1.35;;;;;;;9.53;100.00;99382.50;7387679;19;20474;-52
2022/04/11 06:18:13;;;;;;;3.88;1.20;;;;;;;9.54;100.00;99389.59;7390798;19;20018;-52
2022/04/11 06:20:39;;;;;;;3.03;1.67;;;;;;;9.60;100.00;99385.66;7387093;19;20019;-52
2022/04/11 06:23:07;;;;;;;3.55;1.63;;;;;;;9.64;100.00;99382.69;7386517;19;20010;-52
2022/04/11 06:25:37;;;;;;;0.85;0.63;;;;;;;9.66;100.00;99369.81;7385807;19;20039;-52
2022/04/11 06:28:04;;;;;;;1.70;1.60;;;;;;;9.76;100.00;99373.28;7388803;19;20014;-52
2022/04/11 06:30:30;;;;;;;2.30;0.98;;;;;;;9.81;100.00;99375.41;7385632;19;20028;-52
2022/04/11 06:32:56;;;;;;;2.38;2.05;;;;;;;9.77;100.00;99374.78;7385377;19;20027;-53
2022/04/11 06:35:22;;;;;;;3.00;1.55;;;;;;;9.78;100.00;99371.56;7385007;19;20495;-52
2022/04/11 06:37:49;;;;;;;3.65;1.52;;;;;;;9.83;100.00;99378.47;7387950;19;20013;-52
2022/04/11 06:40:17;;;;;;;3.03;1.63;;;;;;;9.90;100.00;99373.25;7385666;19;20015;-52
2022/04/11 06:42:43;;;;;;;7.57;1.30;;;;;;;9.94;100.00;99368.25;7384935;19;20488;-52
2022/04/11 06:45:29;;;;;;;1.35;1.25;;;;;;;10.00;100.00;99387.81;7387838;19;20017;-52
2022/04/11 06:48:00;;;;;;;1.25;1.23;;;;;;;10.05;100.00;99380.81;7389748;19;20019;-52
2022/04/11 06:50:26;;;;;;;1.75;1.55;;;;;;;10.10;100.00;99374.53;7387268;19;20479;-52
2022/04/11 06:52:53;;;;;;;3.08;1.05;;;;;;;10.17;100.00;99374.19;7387960;19;20172;-52
2022/04/11 06:55:19;;;;;;;3.22;1.20;;;;;;;10.23;100.00;99380.56;7385868;19;20035;-52
2022/04/11 06:57:45;;;;;;;2.55;1.23;;;;;;;10.26;100.00;99372.03;7387300;19;20359;-53
2022/04/11 07:00:11;;;;;;;1.50;1.38;;;;;;;10.37;100.00;99369.38;7385869;19;20015;-52
2022/04/11 07:02:37;;;;;;;1.55;1.45;;;;;;;10.49;100.00;99368.28;7386604;19;20014;-52
2022/04/11 07:05:08;;;;;;;2.63;1.30;;;;;;;10.61;100.00;99360.88;7384446;19;20039;-52
2022/04/11 07:07:38;;;;;;;;;;;;;;;10.77;100.00;99373.44;7387416;19;20691;-52
2022/04/11 07:10:05;;;;;;;5.43;1.92;;;;;;;10.91;100.00;99370.59;7384429;19;19915;-53
2022/04/11 07:12:31;;;;;;;4.22;2.28;;;;;;;11.07;100.00;99360.84;7387779;19;20018;-52
2022/04/11 07:15:02;;;;;;;5.22;0.98;;;;;;;11.23;100.00;99363.84;7388946;19;20023;-53
2022/04/11 07:17:28;;;;;;;1.10;0.70;;;;;;;11.34;100.00;99365.97;7390663;19;20019;-52
2022/04/11 07:19:54;;;;;;;1.85;1.58;;;;;;;11.44;100.00;99356.94;7388491;19;20010;-53
2022/04/11 07:22:21;;;;;;;1.42;1.35;;;;;;;11.55;100.00;99356.25;7387668;19;20397;-53
2022/04/11 07:24:47;;;;;;;4.82;1.48;;;;;;;11.60;100.00;99354.78;7386866;19;20011;-52
2022/04/11 07:27:14;;;;;;;0.82;0.80;;;;;;;11.59;100.00;99356.03;7395328;19;20021;-52
2022/04/11 07:29:40;;;;;;;1.48;0.80;;;;;;;11.59;100.00;99365.16;7399406;19;20031;-53
2022/04/11 07:32:06;;;;;;;3.17;1.48;;;;;;;11.62;100.00;99355.81;7395481;19;20011;-53
2022/04/11 07:34:33;;;;;;;9.68;2.83;;;;;;;11.60;100.00;99357.56;7395583;19;20018;-53
2022/04/11 07:36:59;;;;;;;4.13;1.80;;;;;;;11.64;100.00;99358.09;7393914;19;20022;-53
2022/04/11 07:39:25;;;;;;;1.85;1.17;;;;;;;11.71;100.00;99341.72;7395327;19;20019;-53
2022/04/11 07:41:55;;;;;;;4.20;1.27;;;;;;;11.72;100.00;99343.22;7394469;19;20018;-53
2022/04/11 07:44:21;;;;;;;2.70;1.20;;;;;;;11.82;100.00;99341.81;7392674;19;20385;-53
2022/04/11 07:46:48;;;;;;;4.03;1.25;;;;;;;11.78;100.00;99330.09;7394918;19;20031;-53
2022/04/11 07:49:14;;;;;;;1.55;1.23;;;;;;;11.82;100.00;99341.81;7393906;19;20003;-53
2022/04/11 07:51:40;;;;;;;2.85;2.13;;;;;;;11.79;100.00;99333.66;7393562;19;20014;-53
2022/04/11 07:54:06;;;;;;;7.55;2.28;;;;;;;11.78;100.00;99321.72;7393179;19;20021;-53
2022/04/11 07:56:32;;;;;;;0.90;0.77;;;;;;;11.81;100.00;99320.75;7393673;19;20021;-53
2022/04/11 07:58:58;;;;;;;1.45;1.27;;;;;;;11.80;100.00;99316.41;7395981;19;20044;-53
2022/04/11 08:01:25;;;;;;;3.92;1.70;;;;;;;11.82;100.00;99319.50;7392555;19;20011;-53
2022/04/11 08:03:51;;;;;;;1.50;1.40;;;;;;;11.85;100.00;99329.63;7393104;19;20014;-53
2022/04/11 08:06:17;;;;;;;0.73;0.60;;;;;;;11.93;100.00;99319.53;7393769;19;20018;-53
2022/04/11 08:08:46;;;;;;;1.88;1.58;;;;;;;11.96;100.00;99324.13;7396968;19;20472;-53
2022/04/11 08:11:17;;;;;;;3.80;1.27;;;;;;;12.14;100.00;99340.50;7393212;19;20030;-53
2022/04/11 08:13:44;;;;;;;4.03;1.55;;;;;;;12.29;100.00;99333.97;7394156;19;20022;-53
2022/04/11 08:16:10;;;;;;;1.25;1.17;;;;;;;12.39;100.00;99332.50;7393341;19;20014;-53
2022/04/11 08:18:37;;;;;;;2.42;1.67;;;;;;;12.45;100.00;99331.22;7397569;19;20018;-53
2022/04/11 08:21:04;;;;;;;2.10;1.80;;;;;;;12.55;100.00;99340.19;7393681;19;20021;-53
2022/04/11 08:23:30;;;;;;;0.85;0.82;;;;;;;12.64;100.00;99337.19;7392190;19;20034;-53
2022/04/11 08:25:57;;;;;;;2.75;1.30;;;;;;;12.79;100.00;99326.56;7393876;19;20011;-53
2022/04/11 08:28:24;;;;;;;5.63;1.58;;;;;;;12.79;100.00;99320.97;7397123;19;20047;-53
2022/04/11 08:30:50;;;;;;;2.53;1.30;;;;;;;12.83;100.00;99310.31;7393796;19;20027;-53
2022/04/11 08:33:16;;;;;;;3.42;1.30;;;;;;;12.92;100.00;99324.81;7393784;19;20014;-53
2022/04/11 08:35:43;;;;;;;1.38;0.82;;;;;;;13.03;100.00;99323.31;7391984;19;20365;-53
2022/04/11 08:38:09;;;;;;;1.55;1.45;;;;;;;13.24;100.00;99322.63;7395834;19;20018;-53
2022/04/11 08:40:36;;;;;;;3.17;1.30;;;;;;;13.34;100.00;99326.69;7392876;19;20015;-53
2022/04/11 08:43:02;;;;;;;2.25;0.95;;;;;;;13.29;100.00;99333.06;7393113;19;20022;-53
2022/04/11 08:45:29;;;;;;;2.83;1.50;;;;;;;13.39;100.00;99328.72;7392956;19;20351;-53
2022/04/11 08:47:58;;;;;;;3.83;0.90;;;;;;;13.45;100.00;99314.72;7396853;19;20019;-53
2022/04/11 08:50:26;;;;;;;3.80;1.50;;;;;;;13.41;100.00;99308.63;7393031;19;20371;-53
2022/04/11 08:52:54;;;;;;;7.30;2.00;;;;;;;13.43;100.00;99287.28;7392046;19;20003;-53
2022/04/11 08:55:23;;;;;;;2.35;1.25;;;;;;;13.41;100.00;99298.22;7392747;19;20011;-53
2022/04/11 08:57:50;;;;;;;3.15;1.38;;;;;;;13.40;100.00;99290.34;7394870;19;20498;-53
2022/04/11 09:00:20;;;;;;;1.92;1.75;;;;;;;13.48;100.00;99280.94;7392789;19;20035;-53
2022/04/11 09:02:47;;;;;;;14.15;2.20;;;;;;;13.52;100.00;99280.66;7392174;19;20015;-53
2022/04/11 09:05:22;;;;;;;0.80;0.80;;;;;;;13.62;100.00;99271.50;7391659;19;20013;-53
2022/04/11 09:07:55;;;;;;;1.20;0.38;;;;;;;13.65;99.88;99247.34;7394575;19;20010;-53
2022/04/11 09:10:23;;;;;;;1.23;1.20;;;;;;;13.81;99.02;99245.78;7390359;19;20329;-53
2022/04/11 09:12:53;;;;;;;3.03;1.25;;;;;;;13.91;97.38;99255.41;7391698;19;20010;-52
2022/04/11 09:15:20;;;;;;;1.38;1.25;;;;;;;13.88;98.15;99262.06;7392349;19;20509;-53
2022/04/11 09:17:48;;;;;;;1.17;1.08;;;;;;;13.97;96.83;99258.97;7394539;19;20019;-52
2022/04/11 09:20:16;;;;;;;18.80;1.05;;;;;;;14.05;96.51;99234.78;7392621;19;20014;-53
2022/04/11 09:22:43;;;;;;;4.15;1.15;;;;;;;14.15;95.58;99238.81;7392181;19;20010;-53
2022/04/11 09:25:10;;;;;;;0.75;0.45;;;;;;;14.24;95.67;99228.06;7389848;19;20034;-53
2022/04/11 09:27:37;;;;;;;2.03;0.93;;;;;;;14.34;94.80;99234.16;7393720;19;20411;-53
2022/04/11 09:30:25;;;;;;;1.88;0.90;;;;;;;14.34;94.58;99228.56;7395041;19;20015;-53
2022/04/11 09:32:57;;;;;;;1.38;1.15;;;;;;;14.40;94.38;99223.72;7391573;19;20070;-53
2022/04/11 09:35:25;;;;;;;2.90;1.35;;;;;;;14.44;93.73;99219.34;7390900;19;20356;-52
2022/04/11 09:38:13;;;;;;;0.90;0.65;;;;;;;14.64;93.91;99215.41;7391763;19;20613;-52
2022/04/11 09:40:53;;;;;;;1.92;1.23;;;;;;;15.02;94.77;99216.44;7388649;19;20477;-52
2022/04/11 09:43:28;;;;;;;1.83;0.73;;;;;;;15.27;93.08;99198.34;7390926;19;20010;-53
2022/04/11 09:45:55;;;;;;;1.30;0.90;;;;;;;15.61;91.81;99204.47;7391498;19;20017;-53
2022/04/11 09:48:32;;;;;;;1.05;0.73;;;;;;;15.84;91.28;99202.94;7392533;19;20014;-53
2022/04/11 09:50:59;;;;;;;3.38;1.08;;;;;;;15.93;88.81;99194.91;7390710;19;20019;-53
2022/04/11 09:53:31;;;;;;;5.97;1.10;;;;;;;15.94;89.05;99192.84;7390605;19;20015;-54
2022/04/11 09:56:02;;;;;;;1.23;0.65;;;;;;;15.69;88.39;99185.75;7390471;19;20066;-53
2022/04/11 09:58:28;;;;;;;2.15;0.88;;;;;;;15.59;88.25;99179.69;7394022;19;20031;-53
2022/04/11 10:00:57;;;;;;;4.75;1.50;;;;;;;15.45;88.98;99177.31;7388221;19;20014;-54
2022/04/11 10:03:23;;;;;;;2.05;1.23;;;;;;;15.38;88.37;99178.63;7389399;19;20012;-53
2022/04/11 10:05:50;;;;;;;0.95;0.55;;;;;;;15.31;88.01;99173.59;7390380;19;20006;-53
2022/04/11 10:08:18;;;;;;;0.60;0.60;;;;;;;15.55;89.67;99162.41;7392856;19;20011;-53
2022/04/11 10:10:44;;;;;;;3.88;0.80;;;;;;;15.75;87.83;99159.13;7390189;19;20007;-53
2022/04/11 10:13:15;;;;;;;2.60;1.30;;;;;;;15.93;87.69;99166.06;7390876;19;20021;-53
2022/04/11 10:15:48;;;;;;;1.85;1.02;;;;;;;16.10;87.88;99160.22;7390347;19;20082;-52
2022/04/11 10:18:26;;;;;;;0.65;0.65;;;;;;;16.06;85.30;99163.34;7393750;19;20115;-53
2022/04/11 10:21:02;;;;;;;0.52;0.45;;;;;;;16.30;84.17;99156.91;7389580;19;20010;-53
2022/04/11 10:23:31;;;;;;;1.88;1.48;;;;;;;16.28;83.30;99165.88;7389228;19;20011;-53
2022/04/11 10:26:03;;;;;;;4.28;1.17;;;;;;;16.16;81.18;99156.06;7389200;19;20066;-54
2022/04/11 10:28:30;;;;;;;1.60;0.73;;;;;;;16.06;82.39;99154.94;7392860;19;20039;-53
2022/04/11 10:31:11;;;;;;;2.42;1.00;;;;;;;16.11;80.80;99159.72;7389761;19;20006;-53
2022/04/11 10:33:46;;;;;;;1.95;1.15;;;;;;;16.15;79.24;99176.25;7389898;19;20583;-54
2022/04/11 10:36:35;;;;;;;2.55;0.75;;;;;;;16.37;79.02;99179.53;7389322;19;20015;-53
2022/04/11 10:39:19;;;;;;;4.72;1.08;;;;;;;16.32;76.53;99177.56;7389628;19;20007;-53
2022/04/11 10:41:55;;;;;;;1.13;0.52;;;;;;;16.40;76.52;99186.91;7389391;19;20496;-53
2022/04/11 10:44:30;;;;;;;1.17;0.93;;;;;;;16.57;75.53;99164.19;7388222;19;20018;-53
2022/04/11 10:47:11;;;;;;;2.30;0.80;;;;;;;16.54;75.11;99154.03;7388721;19;20468;-53
2022/04/11 10:49:55;;;;;;;0.68;0.63;;;;;;;16.66;76.91;99150.53;7389730;19;20335;-53
2022/04/11 10:52:34;;;;;;;3.03;1.00;;;;;;;16.53;75.02;99153.28;7389074;19;20026;-53
2022/04/11 10:55:22;;;;;;;3.95;0.75;;;;;;;16.36;75.22;99155.53;7389224;19;20052;-53
2022/04/11 10:57:54;;;;;;;1.55;1.25;;;;;;;16.44;75.63;99145.19;7391574;19;20018;-52
2022/04/11 11:00:28;;;;;;;2.47;1.13;;;;;;;16.36;75.47;99149.91;7391669;19;20013;-52
2022/04/11 11:02:56;;;;;;;1.17;1.08;;;;;;;16.36;75.05;99160.41;7395339;19;20015;-53
2022/04/11 11:05:41;;;;;;;1.80;0.63;;;;;;;16.50;75.66;99142.34;7395976;19;20466;-53
2022/04/11 11:08:11;;;;;;;0.52;0.52;;;;;;;16.81;76.38;99149.25;7398522;19;20347;-53
2022/04/11 11:10:42;;;;;;;1.60;0.43;;;;;;;16.95;75.39;99142.41;7396299;19;20031;-54
2022/04/11 11:13:27;;;;;;;;;;;;;;;16.75;75.00;99126.09;7396720;19;20364;-52
2022/04/11 11:15:55;;;;;;;3.95;2.17;;;;;;;16.67;74.49;99123.91;7397667;19;20344;-54
2022/04/11 11:18:21;;;;;;;9.63;0.88;;;;;;;16.70;76.21;99127.72;7399080;19;20011;-53
2022/04/11 11:20:57;;;;;;;2.67;0.50;;;;;;;17.04;77.44;99139.19;7399679;19;20014;-53
2022/04/11 11:23:31;;;;;;;2.25;0.80;;;;;;;17.29;73.36;99132.06;7395343;19;20022;-53
2022/04/11 11:26:11;;;;;;;2.05;1.25;;;;;;;17.41;71.74;99110.88;7395167;19;20106;-53
2022/04/11 11:28:41;;;;;;;3.47;1.27;;;;;;;17.29;71.85;99118.78;7399635;19;20339;-53
2022/04/11 11:31:07;;;;;;;1.83;0.85;;;;;;;17.21;70.47;99103.06;7395283;19;20326;-54
2022/04/11 11:33:33;;;;;;;7.82;0.85;;;;;;;17.28;70.88;99105.25;7395231;19;20402;-54
2022/04/11 11:36:02;;;;;;;2.70;0.80;;;;;;;17.38;72.34;99103.50;7395627;19;20015;-53
2022/04/11 11:38:30;;;;;;;1.90;0.80;;;;;;;17.37;73.27;99094.31;7398832;19;20113;-53